sensor_id;sensor_type;location;lat;lon;timestamp;temperature;humidity
20795;DHT22;28087;-33.874;151.240;2022-10-30T00:12:16;24.00;95.10
20795;DHT22;28087;-33.874;151.240;2022-10-30T00:14:53;24.00;95.30
20795;DHT22;28087;-33.874;151.240;2022-10-30T00:35:48;23.80;95.60
20795;DHT22;28087;-33.874;151.240;2022-10-30T00:43:36;24.00;95.50
20795;DHT22;28087;-33.874;151.240;2022-10-30T00:46:18;23.90;99.20
20795;DHT22;28087;-33.874;151.240;2022-10-30T00:59:23;24.00;97.30
20795;DHT22;28087;-33.874;151.240;2022-10-30T01:02:01;24.00;97.40
20795;DHT22;28087;-33.874;151.240;2022-10-30T01:18:10;23.40;99.90
20795;DHT22;28087;-33.874;151.240;2022-10-30T01:48:42;23.60;99.20
20795;DHT22;28087;-33.874;151.240;2022-10-30T01:51:30;23.40;98.90
20795;DHT22;28087;-33.874;151.240;2022-10-30T01:54:18;23.40;99.90
20795;DHT22;28087;-33.874;151.240;2022-10-30T02:02:19;23.10;99.90
20795;DHT22;28087;-33.874;151.240;2022-10-30T02:10:09;23.10;99.90
20795;DHT22;28087;-33.874;151.240;2022-10-30T02:38:52;22.70;99.90
20795;DHT22;28087;-33.874;151.240;2022-10-30T02:49:12;23.00;99.90
20795;DHT22;28087;-33.874;151.240;2022-10-30T03:36:04;23.10;99.90
20795;DHT22;28087;-33.874;151.240;2022-10-30T04:21:14;22.60;99.90
20795;DHT22;28087;-33.874;151.240;2022-10-30T04:57:55;21.80;99.90
20795;DHT22;28087;-33.874;151.240;2022-10-30T05:08:31;21.50;99.90
20795;DHT22;28087;-33.874;151.240;2022-10-30T05:11:18;21.50;99.90
20795;DHT22;28087;-33.874;151.240;2022-10-30T05:21:53;21.20;99.90
20795;DHT22;28087;-33.874;151.240;2022-10-30T05:24:28;21.10;99.90
20795;DHT22;28087;-33.874;151.240;2022-10-30T05:29:40;21.20;99.90
20795;DHT22;28087;-33.874;151.240;2022-10-30T05:32:15;21.20;99.90
20795;DHT22;28087;-33.874;151.240;2022-10-30T05:34:52;21.30;99.90
20795;DHT22;28087;-33.874;151.240;2022-10-30T05:37:28;21.30;99.90
20795;DHT22;28087;-33.874;151.240;2022-10-30T05:40:15;21.40;99.90
20795;DHT22;28087;-33.874;151.240;2022-10-30T05:42:50;21.40;99.90
20795;DHT22;28087;-33.874;151.240;2022-10-30T05:45:29;21.30;99.90
20795;DHT22;28087;-33.874;151.240;2022-10-30T05:48:07;21.10;99.90
20795;DHT22;28087;-33.874;151.240;2022-10-30T05:50:46;21.10;99.90
20795;DHT22;28087;-33.874;151.240;2022-10-30T05:53:27;21.20;99.90
20795;DHT22;28087;-33.874;151.240;2022-10-30T05:56:04;21.40;99.90
20795;DHT22;28087;-33.874;151.240;2022-10-30T05:58:42;21.10;99.90
20795;DHT22;28087;-33.874;151.240;2022-10-30T06:01:19;21.50;99.90
20795;DHT22;28087;-33.874;151.240;2022-10-30T06:03:59;21.20;99.90
20795;DHT22;28087;-33.874;151.240;2022-10-30T06:06:34;21.20;99.90
20795;DHT22;28087;-33.874;151.240;2022-10-30T06:09:11;21.10;99.90
20795;DHT22;28087;-33.874;151.240;2022-10-30T06:12:03;21.20;99.90
20795;DHT22;28087;-33.874;151.240;2022-10-30T06:14:57;21.10;99.90
20795;DHT22;28087;-33.874;151.240;2022-10-30T06:17:37;21.10;99.90
20795;DHT22;28087;-33.874;151.240;2022-10-30T06:20:22;21.10;99.90
20795;DHT22;28087;-33.874;151.240;2022-10-30T06:23:22;21.10;99.90
20795;DHT22;28087;-33.874;151.240;2022-10-30T06:26:14;21.10;99.90
20795;DHT22;28087;-33.874;151.240;2022-10-30T06:28:54;21.00;99.90
20795;DHT22;28087;-33.874;151.240;2022-10-30T06:31:29;21.00;99.90
20795;DHT22;28087;-33.874;151.240;2022-10-30T06:34:07;21.10;99.90
20795;DHT22;28087;-33.874;151.240;2022-10-30T06:36:44;21.00;99.90
20795;DHT22;28087;-33.874;151.240;2022-10-30T06:39:19;20.80;99.90
20795;DHT22;28087;-33.874;151.240;2022-10-30T06:42:28;20.80;99.90
20795;DHT22;28087;-33.874;151.240;2022-10-30T06:45:24;20.80;99.90
20795;DHT22;28087;-33.874;151.240;2022-10-30T06:48:00;20.80;99.90
20795;DHT22;28087;-33.874;151.240;2022-10-30T06:50:44;20.80;99.90
20795;DHT22;28087;-33.874;151.240;2022-10-30T06:53:20;20.90;99.90
20795;DHT22;28087;-33.874;151.240;2022-10-30T06:56:00;21.00;99.90
20795;DHT22;28087;-33.874;151.240;2022-10-30T06:58:46;21.10;99.90
20795;DHT22;28087;-33.874;151.240;2022-10-30T07:01:41;21.10;99.90
20795;DHT22;28087;-33.874;151.240;2022-10-30T07:04:24;20.80;99.90
20795;DHT22;28087;-33.874;151.240;2022-10-30T07:07:04;20.80;99.90
20795;DHT22;28087;-33.874;151.240;2022-10-30T07:09:39;20.80;99.90
20795;DHT22;28087;-33.874;151.240;2022-10-30T07:12:17;20.70;99.90
20795;DHT22;28087;-33.874;151.240;2022-10-30T07:14:58;20.50;99.90
20795;DHT22;28087;-33.874;151.240;2022-10-30T07:17:58;20.40;99.90
20795;DHT22;28087;-33.874;151.240;2022-10-30T07:20:37;20.50;99.90
20795;DHT22;28087;-33.874;151.240;2022-10-30T07:23:16;20.50;99.90
20795;DHT22;28087;-33.874;151.240;2022-10-30T07:25:55;20.50;99.90
20795;DHT22;28087;-33.874;151.240;2022-10-30T07:28:47;20.40;99.90
20795;DHT22;28087;-33.874;151.240;2022-10-30T07:31:26;20.60;99.90
20795;DHT22;28087;-33.874;151.240;2022-10-30T07:34:15;20.60;99.90
20795;DHT22;28087;-33.874;151.240;2022-10-30T07:37:03;20.70;99.90
20795;DHT22;28087;-33.874;151.240;2022-10-30T07:39:58;20.60;99.90
20795;DHT22;28087;-33.874;151.240;2022-10-30T07:43:05;20.70;99.90
20795;DHT22;28087;-33.874;151.240;2022-10-30T07:48:22;20.60;99.90
20795;DHT22;28087;-33.874;151.240;2022-10-30T07:54:00;20.70;99.90
20795;DHT22;28087;-33.874;151.240;2022-10-30T07:59:47;20.60;99.90
20795;DHT22;28087;-33.874;151.240;2022-10-30T08:02:41;20.50;99.90
20795;DHT22;28087;-33.874;151.240;2022-10-30T08:05:23;20.50;99.90
20795;DHT22;28087;-33.874;151.240;2022-10-30T08:08:23;20.50;99.90
20795;DHT22;28087;-33.874;151.240;2022-10-30T08:11:11;20.40;99.90
20795;DHT22;28087;-33.874;151.240;2022-10-30T08:13:48;20.50;99.90
20795;DHT22;28087;-33.874;151.240;2022-10-30T08:16:24;20.50;99.90
20795;DHT22;28087;-33.874;151.240;2022-10-30T08:19:00;20.40;99.90
20795;DHT22;28087;-33.874;151.240;2022-10-30T08:21:36;20.40;99.90
20795;DHT22;28087;-33.874;151.240;2022-10-30T08:24:17;20.30;99.90
20795;DHT22;28087;-33.874;151.240;2022-10-30T08:26:55;20.30;99.90
20795;DHT22;28087;-33.874;151.240;2022-10-30T08:29:32;20.20;99.90
20795;DHT22;28087;-33.874;151.240;2022-10-30T08:32:08;20.10;99.90
20795;DHT22;28087;-33.874;151.240;2022-10-30T08:35:14;20.30;99.90
20795;DHT22;28087;-33.874;151.240;2022-10-30T08:37:55;20.20;99.90
20795;DHT22;28087;-33.874;151.240;2022-10-30T08:43:11;20.20;99.90
20795;DHT22;28087;-33.874;151.240;2022-10-30T08:48:27;20.30;99.90
20795;DHT22;28087;-33.874;151.240;2022-10-30T08:51:05;20.30;99.90
20795;DHT22;28087;-33.874;151.240;2022-10-30T08:53:47;20.20;99.90
20795;DHT22;28087;-33.874;151.240;2022-10-30T08:56:24;20.20;99.90
20795;DHT22;28087;-33.874;151.240;2022-10-30T09:04:52;20.10;99.90
20795;DHT22;28087;-33.874;151.240;2022-10-30T09:08:05;20.30;99.90
20795;DHT22;28087;-33.874;151.240;2022-10-30T09:11:00;20.10;99.90
20795;DHT22;28087;-33.874;151.240;2022-10-30T09:13:36;20.20;99.90
20795;DHT22;28087;-33.874;151.240;2022-10-30T09:16:15;20.10;99.90
20795;DHT22;28087;-33.874;151.240;2022-10-30T09:18:53;19.90;99.90
20795;DHT22;28087;-33.874;151.240;2022-10-30T09:24:07;20.10;99.90
20795;DHT22;28087;-33.874;151.240;2022-10-30T09:26:45;20.00;99.90
20795;DHT22;28087;-33.874;151.240;2022-10-30T09:29:26;20.10;99.90
20795;DHT22;28087;-33.874;151.240;2022-10-30T09:32:23;20.00;99.90
20795;DHT22;28087;-33.874;151.240;2022-10-30T09:37:51;20.00;99.90
20795;DHT22;28087;-33.874;151.240;2022-10-30T09:40:43;20.00;99.90
20795;DHT22;28087;-33.874;151.240;2022-10-30T09:43:30;20.00;99.90
20795;DHT22;28087;-33.874;151.240;2022-10-30T09:46:23;20.10;99.90
20795;DHT22;28087;-33.874;151.240;2022-10-30T09:49:13;20.00;99.90
20795;DHT22;28087;-33.874;151.240;2022-10-30T09:52:12;20.00;99.90
20795;DHT22;28087;-33.874;151.240;2022-10-30T09:57:56;19.90;99.90
20795;DHT22;28087;-33.874;151.240;2022-10-30T10:00:37;20.00;99.90
20795;DHT22;28087;-33.874;151.240;2022-10-30T10:03:52;20.00;99.90
20795;DHT22;28087;-33.874;151.240;2022-10-30T10:10:27;20.10;99.90
20795;DHT22;28087;-33.874;151.240;2022-10-30T10:13:27;20.30;99.90
20795;DHT22;28087;-33.874;151.240;2022-10-30T10:18:48;20.40;99.90
20795;DHT22;28087;-33.874;151.240;2022-10-30T10:21:25;20.40;99.90
20795;DHT22;28087;-33.874;151.240;2022-10-30T10:24:08;20.10;99.90
20795;DHT22;28087;-33.874;151.240;2022-10-30T10:26:51;20.00;99.90
20795;DHT22;28087;-33.874;151.240;2022-10-30T10:29:45;20.00;99.90
20795;DHT22;28087;-33.874;151.240;2022-10-30T10:35:45;20.10;99.90
20795;DHT22;28087;-33.874;151.240;2022-10-30T10:38:35;20.20;99.90
20795;DHT22;28087;-33.874;151.240;2022-10-30T10:41:22;20.00;99.90
20795;DHT22;28087;-33.874;151.240;2022-10-30T10:46:59;20.00;99.90
20795;DHT22;28087;-33.874;151.240;2022-10-30T10:54:58;19.90;99.90
20795;DHT22;28087;-33.874;151.240;2022-10-30T10:57:38;19.90;99.90
20795;DHT22;28087;-33.874;151.240;2022-10-30T11:00:17;19.80;99.90
20795;DHT22;28087;-33.874;151.240;2022-10-30T11:02:59;19.80;99.90
20795;DHT22;28087;-33.874;151.240;2022-10-30T11:05:47;19.90;99.90
20795;DHT22;28087;-33.874;151.240;2022-10-30T11:08:26;20.00;99.90
20795;DHT22;28087;-33.874;151.240;2022-10-30T11:11:02;20.20;99.90
20795;DHT22;28087;-33.874;151.240;2022-10-30T11:13:42;20.00;99.90
20795;DHT22;28087;-33.874;151.240;2022-10-30T11:16:24;19.90;99.90
20795;DHT22;28087;-33.874;151.240;2022-10-30T11:19:03;20.00;99.90
20795;DHT22;28087;-33.874;151.240;2022-10-30T11:24:29;19.80;99.90
20795;DHT22;28087;-33.874;151.240;2022-10-30T11:27:17;19.80;99.90
20795;DHT22;28087;-33.874;151.240;2022-10-30T11:30:01;19.90;99.90
20795;DHT22;28087;-33.874;151.240;2022-10-30T11:32:38;19.90;99.90
20795;DHT22;28087;-33.874;151.240;2022-10-30T11:35:14;19.90;99.90
20795;DHT22;28087;-33.874;151.240;2022-10-30T11:37:51;19.90;99.90
20795;DHT22;28087;-33.874;151.240;2022-10-30T11:40:29;19.90;99.90
20795;DHT22;28087;-33.874;151.240;2022-10-30T11:43:04;19.80;99.90
20795;DHT22;28087;-33.874;151.240;2022-10-30T11:45:43;19.90;99.90
20795;DHT22;28087;-33.874;151.240;2022-10-30T11:48:21;19.80;99.90
20795;DHT22;28087;-33.874;151.240;2022-10-30T11:51:00;19.90;99.90
20795;DHT22;28087;-33.874;151.240;2022-10-30T11:53:40;19.90;99.90
20795;DHT22;28087;-33.874;151.240;2022-10-30T11:56:19;19.90;99.90
20795;DHT22;28087;-33.874;151.240;2022-10-30T11:58:58;19.80;99.90
20795;DHT22;28087;-33.874;151.240;2022-10-30T12:01:36;19.90;99.90
20795;DHT22;28087;-33.874;151.240;2022-10-30T12:04:22;19.80;99.90
20795;DHT22;28087;-33.874;151.240;2022-10-30T12:07:15;19.80;99.90
20795;DHT22;28087;-33.874;151.240;2022-10-30T12:09:51;19.80;99.90
20795;DHT22;28087;-33.874;151.240;2022-10-30T12:12:29;19.80;99.90
20795;DHT22;28087;-33.874;151.240;2022-10-30T12:15:16;19.80;99.90
20795;DHT22;28087;-33.874;151.240;2022-10-30T12:17:57;19.80;99.90
20795;DHT22;28087;-33.874;151.240;2022-10-30T12:20:39;19.90;99.90
20795;DHT22;28087;-33.874;151.240;2022-10-30T12:23:19;19.80;99.90
20795;DHT22;28087;-33.874;151.240;2022-10-30T12:25:59;19.80;99.90
20795;DHT22;28087;-33.874;151.240;2022-10-30T12:28:35;19.90;99.90
20795;DHT22;28087;-33.874;151.240;2022-10-30T12:31:16;19.90;99.90
20795;DHT22;28087;-33.874;151.240;2022-10-30T12:34:03;19.90;99.90
20795;DHT22;28087;-33.874;151.240;2022-10-30T12:36:46;19.80;99.90
20795;DHT22;28087;-33.874;151.240;2022-10-30T12:39:26;19.80;99.90
20795;DHT22;28087;-33.874;151.240;2022-10-30T12:42:05;19.80;99.90
20795;DHT22;28087;-33.874;151.240;2022-10-30T12:44:44;19.70;99.90
20795;DHT22;28087;-33.874;151.240;2022-10-30T12:47:26;19.70;99.90
20795;DHT22;28087;-33.874;151.240;2022-10-30T12:50:10;19.70;99.90
20795;DHT22;28087;-33.874;151.240;2022-10-30T12:52:55;19.70;99.90
20795;DHT22;28087;-33.874;151.240;2022-10-30T12:55:38;19.80;99.90
20795;DHT22;28087;-33.874;151.240;2022-10-30T12:58:20;19.90;99.90
20795;DHT22;28087;-33.874;151.240;2022-10-30T13:01:11;19.80;99.90
20795;DHT22;28087;-33.874;151.240;2022-10-30T13:03:52;19.80;99.90
20795;DHT22;28087;-33.874;151.240;2022-10-30T13:06:33;19.80;99.90
20795;DHT22;28087;-33.874;151.240;2022-10-30T13:09:18;19.70;99.90
20795;DHT22;28087;-33.874;151.240;2022-10-30T13:12:02;19.80;99.90
20795;DHT22;28087;-33.874;151.240;2022-10-30T13:14:41;19.70;99.90
20795;DHT22;28087;-33.874;151.240;2022-10-30T13:17:19;19.80;99.90
20795;DHT22;28087;-33.874;151.240;2022-10-30T13:19:54;19.80;99.90
20795;DHT22;28087;-33.874;151.240;2022-10-30T13:22:35;19.90;99.90
20795;DHT22;28087;-33.874;151.240;2022-10-30T13:25:14;19.80;99.90
20795;DHT22;28087;-33.874;151.240;2022-10-30T13:27:56;19.70;99.90
20795;DHT22;28087;-33.874;151.240;2022-10-30T13:30:36;19.90;99.90
20795;DHT22;28087;-33.874;151.240;2022-10-30T13:33:16;19.90;99.90
20795;DHT22;28087;-33.874;151.240;2022-10-30T13:35:58;19.90;99.90
20795;DHT22;28087;-33.874;151.240;2022-10-30T13:38:46;19.90;99.90
20795;DHT22;28087;-33.874;151.240;2022-10-30T13:41:31;19.90;99.90
20795;DHT22;28087;-33.874;151.240;2022-10-30T13:44:20;19.80;99.90
20795;DHT22;28087;-33.874;151.240;2022-10-30T13:47:12;19.90;99.90
20795;DHT22;28087;-33.874;151.240;2022-10-30T13:50:03;19.90;99.90
20795;DHT22;28087;-33.874;151.240;2022-10-30T13:52:45;19.90;99.90
20795;DHT22;28087;-33.874;151.240;2022-10-30T13:55:29;19.90;99.90
20795;DHT22;28087;-33.874;151.240;2022-10-30T13:58:10;19.90;99.90
20795;DHT22;28087;-33.874;151.240;2022-10-30T14:00:56;19.90;99.90
20795;DHT22;28087;-33.874;151.240;2022-10-30T14:03:42;20.00;99.90
20795;DHT22;28087;-33.874;151.240;2022-10-30T14:06:29;20.00;99.90
20795;DHT22;28087;-33.874;151.240;2022-10-30T14:09:14;20.00;99.90
20795;DHT22;28087;-33.874;151.240;2022-10-30T14:15:40;20.00;99.90
20795;DHT22;28087;-33.874;151.240;2022-10-30T14:18:30;20.00;99.90
20795;DHT22;28087;-33.874;151.240;2022-10-30T14:21:29;20.00;99.90
20795;DHT22;28087;-33.874;151.240;2022-10-30T14:24:14;20.10;99.90
20795;DHT22;28087;-33.874;151.240;2022-10-30T14:26:52;20.00;99.90
20795;DHT22;28087;-33.874;151.240;2022-10-30T14:29:48;20.00;99.90
20795;DHT22;28087;-33.874;151.240;2022-10-30T14:32:47;20.00;99.90
20795;DHT22;28087;-33.874;151.240;2022-10-30T14:35:34;20.00;99.90
20795;DHT22;28087;-33.874;151.240;2022-10-30T14:38:33;20.00;99.90
20795;DHT22;28087;-33.874;151.240;2022-10-30T14:44:49;20.00;99.90
20795;DHT22;28087;-33.874;151.240;2022-10-30T14:47:50;20.00;99.90
20795;DHT22;28087;-33.874;151.240;2022-10-30T14:50:50;20.00;99.90
20795;DHT22;28087;-33.874;151.240;2022-10-30T14:53:48;20.00;99.90
20795;DHT22;28087;-33.874;151.240;2022-10-30T14:56:33;20.00;99.90
20795;DHT22;28087;-33.874;151.240;2022-10-30T14:59:21;20.00;99.90
20795;DHT22;28087;-33.874;151.240;2022-10-30T15:05:23;20.00;99.90
20795;DHT22;28087;-33.874;151.240;2022-10-30T15:08:10;20.00;99.90
20795;DHT22;28087;-33.874;151.240;2022-10-30T15:11:01;20.00;99.90
20795;DHT22;28087;-33.874;151.240;2022-10-30T15:13:47;20.00;99.90
20795;DHT22;28087;-33.874;151.240;2022-10-30T15:16:27;19.90;99.90
20795;DHT22;28087;-33.874;151.240;2022-10-30T15:19:06;19.90;99.90
20795;DHT22;28087;-33.874;151.240;2022-10-30T15:21:44;20.00;99.90
20795;DHT22;28087;-33.874;151.240;2022-10-30T15:24:24;19.90;99.90
20795;DHT22;28087;-33.874;151.240;2022-10-30T15:27:05;20.00;99.90
20795;DHT22;28087;-33.874;151.240;2022-10-30T15:29:45;19.90;99.90
20795;DHT22;28087;-33.874;151.240;2022-10-30T15:32:23;19.80;99.90
20795;DHT22;28087;-33.874;151.240;2022-10-30T15:35:18;19.80;99.90
20795;DHT22;28087;-33.874;151.240;2022-10-30T15:38:00;19.80;99.90
20795;DHT22;28087;-33.874;151.240;2022-10-30T15:40:36;19.80;99.90
20795;DHT22;28087;-33.874;151.240;2022-10-30T15:43:13;19.80;99.90
20795;DHT22;28087;-33.874;151.240;2022-10-30T15:45:53;19.70;99.90
20795;DHT22;28087;-33.874;151.240;2022-10-30T15:48:31;19.80;99.90
20795;DHT22;28087;-33.874;151.240;2022-10-30T15:51:14;19.90;99.90
20795;DHT22;28087;-33.874;151.240;2022-10-30T15:53:53;19.80;99.90
20795;DHT22;28087;-33.874;151.240;2022-10-30T15:56:34;19.80;99.90
20795;DHT22;28087;-33.874;151.240;2022-10-30T15:59:35;19.90;99.90
20795;DHT22;28087;-33.874;151.240;2022-10-30T16:02:21;19.90;99.90
20795;DHT22;28087;-33.874;151.240;2022-10-30T16:04:58;19.90;99.90
20795;DHT22;28087;-33.874;151.240;2022-10-30T16:07:35;19.90;99.90
20795;DHT22;28087;-33.874;151.240;2022-10-30T16:10:19;19.90;99.90
20795;DHT22;28087;-33.874;151.240;2022-10-30T16:12:55;19.90;99.90
20795;DHT22;28087;-33.874;151.240;2022-10-30T16:15:34;19.90;99.90
20795;DHT22;28087;-33.874;151.240;2022-10-30T16:18:17;19.90;99.90
20795;DHT22;28087;-33.874;151.240;2022-10-30T16:20:54;19.90;99.90
20795;DHT22;28087;-33.874;151.240;2022-10-30T16:23:37;19.90;99.90
20795;DHT22;28087;-33.874;151.240;2022-10-30T16:26:28;19.90;99.90
20795;DHT22;28087;-33.874;151.240;2022-10-30T16:29:14;19.90;99.90
20795;DHT22;28087;-33.874;151.240;2022-10-30T16:31:53;19.90;99.90
20795;DHT22;28087;-33.874;151.240;2022-10-30T16:34:31;19.90;99.90
20795;DHT22;28087;-33.874;151.240;2022-10-30T16:37:18;19.90;99.90
20795;DHT22;28087;-33.874;151.240;2022-10-30T16:40:05;19.90;99.90
20795;DHT22;28087;-33.874;151.240;2022-10-30T16:42:44;19.80;99.90
20795;DHT22;28087;-33.874;151.240;2022-10-30T16:53:49;19.80;99.90
20795;DHT22;28087;-33.874;151.240;2022-10-30T16:56:28;19.90;99.90
20795;DHT22;28087;-33.874;151.240;2022-10-30T16:59:12;19.80;99.90
20795;DHT22;28087;-33.874;151.240;2022-10-30T17:01:53;19.80;99.90
20795;DHT22;28087;-33.874;151.240;2022-10-30T17:04:33;19.80;99.90
20795;DHT22;28087;-33.874;151.240;2022-10-30T17:07:18;19.80;99.90
20795;DHT22;28087;-33.874;151.240;2022-10-30T17:09:57;19.70;99.90
20795;DHT22;28087;-33.874;151.240;2022-10-30T17:15:13;19.60;99.90
20795;DHT22;28087;-33.874;151.240;2022-10-30T17:20:45;19.60;99.90
20795;DHT22;28087;-33.874;151.240;2022-10-30T17:31:31;19.40;99.90
20795;DHT22;28087;-33.874;151.240;2022-10-30T17:34:18;19.60;99.90
20795;DHT22;28087;-33.874;151.240;2022-10-30T17:36:54;19.50;99.90
20795;DHT22;28087;-33.874;151.240;2022-10-30T17:39:32;19.50;99.90
20795;DHT22;28087;-33.874;151.240;2022-10-30T17:42:08;19.60;99.90
20795;DHT22;28087;-33.874;151.240;2022-10-30T17:44:47;19.40;99.90
20795;DHT22;28087;-33.874;151.240;2022-10-30T17:47:24;19.40;99.90
20795;DHT22;28087;-33.874;151.240;2022-10-30T17:49:59;19.50;99.90
20795;DHT22;28087;-33.874;151.240;2022-10-30T17:52:36;19.40;99.90
20795;DHT22;28087;-33.874;151.240;2022-10-30T17:55:22;19.40;99.90
20795;DHT22;28087;-33.874;151.240;2022-10-30T17:57:59;19.50;99.90
20795;DHT22;28087;-33.874;151.240;2022-10-30T18:00:37;19.50;99.90
20795;DHT22;28087;-33.874;151.240;2022-10-30T18:03:13;19.50;99.90
20795;DHT22;28087;-33.874;151.240;2022-10-30T18:05:49;19.40;99.90
20795;DHT22;28087;-33.874;151.240;2022-10-30T18:08:25;19.50;99.90
20795;DHT22;28087;-33.874;151.240;2022-10-30T18:11:00;19.50;99.90
20795;DHT22;28087;-33.874;151.240;2022-10-30T18:13:36;19.50;99.90
20795;DHT22;28087;-33.874;151.240;2022-10-30T18:16:15;19.40;99.90
20795;DHT22;28087;-33.874;151.240;2022-10-30T18:18:51;19.30;99.90
20795;DHT22;28087;-33.874;151.240;2022-10-30T18:21:27;19.30;99.90
20795;DHT22;28087;-33.874;151.240;2022-10-30T18:24:09;19.30;99.90
20795;DHT22;28087;-33.874;151.240;2022-10-30T18:26:45;19.40;99.90
20795;DHT22;28087;-33.874;151.240;2022-10-30T18:29:20;19.30;99.90
20795;DHT22;28087;-33.874;151.240;2022-10-30T18:31:57;19.30;99.90
20795;DHT22;28087;-33.874;151.240;2022-10-30T18:34:38;19.40;99.90
20795;DHT22;28087;-33.874;151.240;2022-10-30T18:37:13;19.40;99.90
20795;DHT22;28087;-33.874;151.240;2022-10-30T18:39:49;19.20;99.90
20795;DHT22;28087;-33.874;151.240;2022-10-30T18:42:24;19.20;99.90
20795;DHT22;28087;-33.874;151.240;2022-10-30T18:44:59;19.30;99.90
20795;DHT22;28087;-33.874;151.240;2022-10-30T18:47:39;19.30;99.90
20795;DHT22;28087;-33.874;151.240;2022-10-30T18:50:17;19.30;99.90
20795;DHT22;28087;-33.874;151.240;2022-10-30T18:52:53;19.30;99.90
20795;DHT22;28087;-33.874;151.240;2022-10-30T18:55:35;19.30;99.90
20795;DHT22;28087;-33.874;151.240;2022-10-30T18:58:11;19.40;99.90
20795;DHT22;28087;-33.874;151.240;2022-10-30T19:00:49;19.40;99.90
20795;DHT22;28087;-33.874;151.240;2022-10-30T19:03:50;19.50;99.90
20795;DHT22;28087;-33.874;151.240;2022-10-30T19:06:25;19.40;99.90
20795;DHT22;28087;-33.874;151.240;2022-10-30T19:09:00;19.40;99.90
20795;DHT22;28087;-33.874;151.240;2022-10-30T19:11:35;19.30;99.90
20795;DHT22;28087;-33.874;151.240;2022-10-30T19:14:14;19.30;99.90
20795;DHT22;28087;-33.874;151.240;2022-10-30T19:16:51;19.20;99.90
20795;DHT22;28087;-33.874;151.240;2022-10-30T19:19:29;19.30;99.90
20795;DHT22;28087;-33.874;151.240;2022-10-30T19:22:05;19.20;99.90
20795;DHT22;28087;-33.874;151.240;2022-10-30T19:24:40;19.10;99.90
20795;DHT22;28087;-33.874;151.240;2022-10-30T19:27:16;19.10;99.90
20795;DHT22;28087;-33.874;151.240;2022-10-30T19:29:53;19.30;99.90
20795;DHT22;28087;-33.874;151.240;2022-10-30T19:32:29;19.40;99.90
20795;DHT22;28087;-33.874;151.240;2022-10-30T19:37:41;19.40;99.90
20795;DHT22;28087;-33.874;151.240;2022-10-30T19:40:25;19.50;99.90
20795;DHT22;28087;-33.874;151.240;2022-10-30T19:43:00;19.70;99.90
20795;DHT22;28087;-33.874;151.240;2022-10-30T19:45:36;19.80;99.90
20795;DHT22;28087;-33.874;151.240;2022-10-30T19:48:14;19.90;99.90
20795;DHT22;28087;-33.874;151.240;2022-10-30T19:51:12;19.90;99.90
20795;DHT22;28087;-33.874;151.240;2022-10-30T19:53:49;19.90;99.90
20795;DHT22;28087;-33.874;151.240;2022-10-30T19:56:27;20.00;99.90
20795;DHT22;28087;-33.874;151.240;2022-10-30T19:59:04;20.00;99.90
20795;DHT22;28087;-33.874;151.240;2022-10-30T20:01:39;20.20;99.90
20795;DHT22;28087;-33.874;151.240;2022-10-30T20:04:15;20.00;99.90
20795;DHT22;28087;-33.874;151.240;2022-10-30T20:06:52;20.00;99.90
20795;DHT22;28087;-33.874;151.240;2022-10-30T20:09:32;20.20;99.90
20795;DHT22;28087;-33.874;151.240;2022-10-30T20:12:11;20.30;99.90
20795;DHT22;28087;-33.874;151.240;2022-10-30T20:14:46;20.30;99.90
20795;DHT22;28087;-33.874;151.240;2022-10-30T20:17:22;20.70;99.90
20795;DHT22;28087;-33.874;151.240;2022-10-30T20:19:59;20.70;99.90
20795;DHT22;28087;-33.874;151.240;2022-10-30T20:22:36;20.80;99.90
20795;DHT22;28087;-33.874;151.240;2022-10-30T20:25:17;21.00;99.90
20795;DHT22;28087;-33.874;151.240;2022-10-30T20:27:58;21.10;99.90
20795;DHT22;28087;-33.874;151.240;2022-10-30T20:30:37;21.30;99.90
20795;DHT22;28087;-33.874;151.240;2022-10-30T20:33:13;21.40;99.90
20795;DHT22;28087;-33.874;151.240;2022-10-30T20:35:51;21.40;99.90
20795;DHT22;28087;-33.874;151.240;2022-10-30T20:38:31;21.50;99.90
20795;DHT22;28087;-33.874;151.240;2022-10-30T20:41:13;21.60;99.90
20795;DHT22;28087;-33.874;151.240;2022-10-30T20:43:52;21.70;99.90
20795;DHT22;28087;-33.874;151.240;2022-10-30T20:46:29;21.70;99.90
20795;DHT22;28087;-33.874;151.240;2022-10-30T20:49:07;21.90;99.90
20795;DHT22;28087;-33.874;151.240;2022-10-30T20:51:47;21.90;99.90
20795;DHT22;28087;-33.874;151.240;2022-10-30T20:54:25;22.00;99.90
20795;DHT22;28087;-33.874;151.240;2022-10-30T20:57:00;22.20;99.90
20795;DHT22;28087;-33.874;151.240;2022-10-30T20:59:35;22.30;99.90
20795;DHT22;28087;-33.874;151.240;2022-10-30T21:02:11;22.40;99.90
20795;DHT22;28087;-33.874;151.240;2022-10-30T21:04:47;22.50;99.90
20795;DHT22;28087;-33.874;151.240;2022-10-30T21:07:23;22.50;99.90
20795;DHT22;28087;-33.874;151.240;2022-10-30T21:10:00;22.40;99.90
20795;DHT22;28087;-33.874;151.240;2022-10-30T21:12:41;22.50;99.90
20795;DHT22;28087;-33.874;151.240;2022-10-30T21:15:16;22.40;99.90
20795;DHT22;28087;-33.874;151.240;2022-10-30T21:17:52;22.40;99.90
20795;DHT22;28087;-33.874;151.240;2022-10-30T21:20:28;22.40;99.90
20795;DHT22;28087;-33.874;151.240;2022-10-30T21:23:04;22.20;99.90
20795;DHT22;28087;-33.874;151.240;2022-10-30T21:25:41;22.10;99.90
20795;DHT22;28087;-33.874;151.240;2022-10-30T21:28:17;22.10;99.90
20795;DHT22;28087;-33.874;151.240;2022-10-30T21:30:53;21.90;99.90
20795;DHT22;28087;-33.874;151.240;2022-10-30T21:36:09;22.00;99.90
20795;DHT22;28087;-33.874;151.240;2022-10-30T21:41:27;22.00;99.90
20795;DHT22;28087;-33.874;151.240;2022-10-30T22:10:04;22.00;99.90
20795;DHT22;28087;-33.874;151.240;2022-10-30T22:12:42;22.00;99.90
20795;DHT22;28087;-33.874;151.240;2022-10-30T22:15:18;22.00;99.90
20795;DHT22;28087;-33.874;151.240;2022-10-30T22:23:05;21.90;99.90
20795;DHT22;28087;-33.874;151.240;2022-10-30T22:49:03;22.20;99.90
20795;DHT22;28087;-33.874;151.240;2022-10-30T22:51:39;22.10;99.90
20795;DHT22;28087;-33.874;151.240;2022-10-30T22:54:14;22.00;99.90
20795;DHT22;28087;-33.874;151.240;2022-10-30T22:56:49;21.90;99.90
20795;DHT22;28087;-33.874;151.240;2022-10-30T23:07:18;22.10;99.90
20795;DHT22;28087;-33.874;151.240;2022-10-30T23:09:55;22.10;99.90
20795;DHT22;28087;-33.874;151.240;2022-10-30T23:12:30;21.90;99.90
20795;DHT22;28087;-33.874;151.240;2022-10-30T23:20:27;21.70;99.90